sensor_id;sensor_type;location;lat;lon;timestamp;pressure;altitude;pressure_sealevel;temperature;humidity
23341;BME280;12239;53.404;23.492;2022-10-03T00:01:02;98641.04;;;7.89;100.00
23341;BME280;12239;53.404;23.492;2022-10-03T00:03:40;98637.99;;;7.89;100.00
23341;BME280;12239;53.404;23.492;2022-10-03T00:06:13;98638.37;;;7.89;100.00
23341;BME280;12239;53.404;23.492;2022-10-03T00:09:03;98638.83;;;7.91;100.00
23341;BME280;12239;53.404;23.492;2022-10-03T00:11:41;98634.10;;;7.91;100.00
23341;BME280;12239;53.404;23.492;2022-10-03T00:14:17;98636.26;;;7.93;100.00
23341;BME280;12239;53.404;23.492;2022-10-03T00:16:50;98632.34;;;7.94;100.00
23341;BME280;12239;53.404;23.492;2022-10-03T00:19:25;98627.92;;;7.92;100.00
23341;BME280;12239;53.404;23.492;2022-10-03T00:22:04;98628.11;;;7.91;100.00
23341;BME280;12239;53.404;23.492;2022-10-03T00:24:42;98626.13;;;7.91;100.00
23341;BME280;12239;53.404;23.492;2022-10-03T00:27:15;98626.13;;;7.91;100.00
23341;BME280;12239;53.404;23.492;2022-10-03T00:29:52;98624.08;;;7.91;100.00
23341;BME280;12239;53.404;23.492;2022-10-03T00:32:28;98622.79;;;7.88;100.00
23341;BME280;12239;53.404;23.492;2022-10-03T00:35:03;98617.64;;;7.88;100.00
23341;BME280;12239;53.404;23.492;2022-10-03T00:37:35;98614.98;;;7.87;100.00
23341;BME280;12239;53.404;23.492;2022-10-03T00:40:22;98608.70;;;7.85;100.00
23341;BME280;12239;53.404;23.492;2022-10-03T00:43:12;98600.75;;;7.83;100.00
23341;BME280;12239;53.404;23.492;2022-10-03T00:48:38;98593.02;;;7.82;100.00
23341;BME280;12239;53.404;23.492;2022-10-03T00:51:26;98588.04;;;7.81;100.00
23341;BME280;12239;53.404;23.492;2022-10-03T00:54:05;98586.05;;;7.79;100.00
23341;BME280;12239;53.404;23.492;2022-10-03T00:57:02;98588.18;;;7.76;100.00
23341;BME280;12239;53.404;23.492;2022-10-03T00:59:39;98579.08;;;7.72;100.00
23341;BME280;12239;53.404;23.492;2022-10-03T01:02:18;98580.54;;;7.69;100.00
23341;BME280;12239;53.404;23.492;2022-10-03T01:04:54;98579.47;;;7.66;100.00
23341;BME280;12239;53.404;23.492;2022-10-03T01:10:17;98571.10;;;7.64;100.00
23341;BME280;12239;53.404;23.492;2022-10-03T01:13:02;98567.31;;;7.63;100.00
23341;BME280;12239;53.404;23.492;2022-10-03T01:15:37;98566.54;;;7.61;100.00
23341;BME280;12239;53.404;23.492;2022-10-03T01:18:15;98564.02;;;7.60;100.00
23341;BME280;12239;53.404;23.492;2022-10-03T01:20:50;98559.56;;;7.59;100.00
23341;BME280;12239;53.404;23.492;2022-10-03T01:26:13;98555.92;;;7.59;100.00
23341;BME280;12239;53.404;23.492;2022-10-03T01:28:47;98557.02;;;7.61;100.00
23341;BME280;12239;53.404;23.492;2022-10-03T01:31:39;98555.20;;;7.61;100.00
23341;BME280;12239;53.404;23.492;2022-10-03T01:34:11;98551.45;;;7.61;100.00
23341;BME280;12239;53.404;23.492;2022-10-03T01:36:56;98551.48;;;7.62;100.00
23341;BME280;12239;53.404;23.492;2022-10-03T01:39:31;98548.57;;;7.63;100.00
23341;BME280;12239;53.404;23.492;2022-10-03T01:42:07;98552.94;;;7.64;100.00
23341;BME280;12239;53.404;23.492;2022-10-03T01:44:40;98556.01;;;7.63;100.00
23341;BME280;12239;53.404;23.492;2022-10-03T01:47:16;98554.80;;;7.62;100.00
23341;BME280;12239;53.404;23.492;2022-10-03T01:49:50;98557.35;;;7.60;100.00
23341;BME280;12239;53.404;23.492;2022-10-03T01:52:23;98559.45;;;7.59;100.00
23341;BME280;12239;53.404;23.492;2022-10-03T01:54:58;98559.03;;;7.59;100.00
23341;BME280;12239;53.404;23.492;2022-10-03T01:57:33;98559.67;;;7.58;100.00
23341;BME280;12239;53.404;23.492;2022-10-03T02:00:04;98558.13;;;7.58;100.00
23341;BME280;12239;53.404;23.492;2022-10-03T02:02:45;98554.03;;;7.57;100.00
23341;BME280;12239;53.404;23.492;2022-10-03T02:05:21;98551.75;;;7.56;100.00
23341;BME280;12239;53.404;23.492;2022-10-03T02:07:57;98548.81;;;7.55;100.00
23341;BME280;12239;53.404;23.492;2022-10-03T02:10:37;98547.64;;;7.54;100.00
23341;BME280;12239;53.404;23.492;2022-10-03T02:13:13;98552.67;;;7.56;100.00
23341;BME280;12239;53.404;23.492;2022-10-03T02:15:56;98548.65;;;7.55;100.00
23341;BME280;12239;53.404;23.492;2022-10-03T02:18:30;98555.45;;;7.55;100.00
23341;BME280;12239;53.404;23.492;2022-10-03T02:21:09;98556.61;;;7.55;100.00
23341;BME280;12239;53.404;23.492;2022-10-03T02:23:41;98553.09;;;7.55;100.00
23341;BME280;12239;53.404;23.492;2022-10-03T02:26:51;98550.29;;;7.57;100.00
23341;BME280;12239;53.404;23.492;2022-10-03T02:29:32;98542.80;;;7.60;100.00
23341;BME280;12239;53.404;23.492;2022-10-03T02:32:21;98542.73;;;7.61;100.00
23341;BME280;12239;53.404;23.492;2022-10-03T02:35:07;98545.35;;;7.63;100.00
23341;BME280;12239;53.404;23.492;2022-10-03T02:37:57;98543.87;;;7.65;100.00
23341;BME280;12239;53.404;23.492;2022-10-03T02:41:05;98536.19;;;7.67;100.00
23341;BME280;12239;53.404;23.492;2022-10-03T02:43:53;98536.27;;;7.68;100.00
23341;BME280;12239;53.404;23.492;2022-10-03T02:46:46;98531.77;;;7.71;100.00
23341;BME280;12239;53.404;23.492;2022-10-03T02:49:38;98535.48;;;7.75;100.00
23341;BME280;12239;53.404;23.492;2022-10-03T02:55:24;98536.90;;;7.78;100.00
23341;BME280;12239;53.404;23.492;2022-10-03T02:58:33;98531.64;;;7.81;100.00
23341;BME280;12239;53.404;23.492;2022-10-03T03:04:05;98525.32;;;7.86;100.00
23341;BME280;12239;53.404;23.492;2022-10-03T03:06:48;98522.24;;;7.87;100.00
23341;BME280;12239;53.404;23.492;2022-10-03T03:17:56;98511.77;;;7.94;100.00
23341;BME280;12239;53.404;23.492;2022-10-03T03:20:39;98502.75;;;7.95;100.00
23341;BME280;12239;53.404;23.492;2022-10-03T03:23:18;98495.82;;;7.97;100.00
23341;BME280;12239;53.404;23.492;2022-10-03T03:25:57;98491.17;;;7.99;100.00
23341;BME280;12239;53.404;23.492;2022-10-03T03:28:33;98487.98;;;8.01;100.00
23341;BME280;12239;53.404;23.492;2022-10-03T03:31:10;98481.66;;;8.03;100.00
23341;BME280;12239;53.404;23.492;2022-10-03T03:33:47;98480.84;;;8.04;100.00
23341;BME280;12239;53.404;23.492;2022-10-03T03:36:22;98481.35;;;8.05;100.00
23341;BME280;12239;53.404;23.492;2022-10-03T03:38:57;98479.39;;;8.07;100.00
23341;BME280;12239;53.404;23.492;2022-10-03T03:41:35;98474.89;;;8.10;100.00
23341;BME280;12239;53.404;23.492;2022-10-03T03:46:59;98467.75;;;8.14;100.00
23341;BME280;12239;53.404;23.492;2022-10-03T03:49:40;98467.13;;;8.17;100.00
23341;BME280;12239;53.404;23.492;2022-10-03T03:52:29;98463.16;;;8.18;100.00
23341;BME280;12239;53.404;23.492;2022-10-03T03:55:07;98460.17;;;8.20;100.00
23341;BME280;12239;53.404;23.492;2022-10-03T03:57:46;98456.27;;;8.21;100.00
23341;BME280;12239;53.404;23.492;2022-10-03T04:00:20;98455.27;;;8.23;100.00
23341;BME280;12239;53.404;23.492;2022-10-03T04:03:01;98450.58;;;8.25;100.00
23341;BME280;12239;53.404;23.492;2022-10-03T04:05:40;98455.44;;;8.26;100.00
23341;BME280;12239;53.404;23.492;2022-10-03T04:08:38;98446.98;;;8.28;100.00
23341;BME280;12239;53.404;23.492;2022-10-03T04:11:35;98441.20;;;8.30;100.00
23341;BME280;12239;53.404;23.492;2022-10-03T04:14:16;98436.09;;;8.31;100.00
23341;BME280;12239;53.404;23.492;2022-10-03T04:17:01;98434.23;;;8.32;100.00
23341;BME280;12239;53.404;23.492;2022-10-03T04:19:58;98421.35;;;8.31;100.00
23341;BME280;12239;53.404;23.492;2022-10-03T04:22:44;98422.71;;;8.32;100.00
23341;BME280;12239;53.404;23.492;2022-10-03T04:25:20;98425.17;;;8.33;100.00
23341;BME280;12239;53.404;23.492;2022-10-03T04:30:39;98426.09;;;8.35;100.00
23341;BME280;12239;53.404;23.492;2022-10-03T04:33:17;98425.33;;;8.35;100.00
23341;BME280;12239;53.404;23.492;2022-10-03T04:35:54;98427.71;;;8.37;100.00
23341;BME280;12239;53.404;23.492;2022-10-03T04:38:40;98419.27;;;8.38;100.00
23341;BME280;12239;53.404;23.492;2022-10-03T04:41:15;98418.16;;;8.37;100.00
23341;BME280;12239;53.404;23.492;2022-10-03T04:43:51;98415.94;;;8.39;100.00
23341;BME280;12239;53.404;23.492;2022-10-03T04:46:26;98412.10;;;8.40;100.00
23341;BME280;12239;53.404;23.492;2022-10-03T04:48:58;98410.21;;;8.40;100.00
23341;BME280;12239;53.404;23.492;2022-10-03T04:51:35;98408.05;;;8.42;100.00
23341;BME280;12239;53.404;23.492;2022-10-03T04:54:18;98405.83;;;8.42;100.00
23341;BME280;12239;53.404;23.492;2022-10-03T04:56:51;98401.94;;;8.42;100.00
23341;BME280;12239;53.404;23.492;2022-10-03T05:02:06;98390.38;;;8.43;100.00
23341;BME280;12239;53.404;23.492;2022-10-03T05:04:42;98392.35;;;8.45;100.00
23341;BME280;12239;53.404;23.492;2022-10-03T05:07:15;98390.73;;;8.45;100.00
23341;BME280;12239;53.404;23.492;2022-10-03T05:09:49;98388.01;;;8.47;100.00
23341;BME280;12239;53.404;23.492;2022-10-03T05:12:25;98387.44;;;8.49;100.00
23341;BME280;12239;53.404;23.492;2022-10-03T05:15:03;98377.50;;;8.50;100.00
23341;BME280;12239;53.404;23.492;2022-10-03T05:17:38;98372.68;;;8.52;100.00
23341;BME280;12239;53.404;23.492;2022-10-03T05:20:16;98367.85;;;8.54;100.00
23341;BME280;12239;53.404;23.492;2022-10-03T05:23:13;98361.90;;;8.56;100.00
23341;BME280;12239;53.404;23.492;2022-10-03T05:25:59;98358.92;;;8.58;100.00
23341;BME280;12239;53.404;23.492;2022-10-03T05:28:38;98361.05;;;8.59;100.00
23341;BME280;12239;53.404;23.492;2022-10-03T05:31:19;98358.50;;;8.61;100.00
23341;BME280;12239;53.404;23.492;2022-10-03T05:33:53;98351.05;;;8.62;100.00
23341;BME280;12239;53.404;23.492;2022-10-03T05:36:32;98351.10;;;8.62;100.00
23341;BME280;12239;53.404;23.492;2022-10-03T05:39:27;98346.88;;;8.62;100.00
23341;BME280;12239;53.404;23.492;2022-10-03T05:42:10;98346.44;;;8.63;100.00
23341;BME280;12239;53.404;23.492;2022-10-03T05:44:44;98344.38;;;8.63;100.00
23341;BME280;12239;53.404;23.492;2022-10-03T05:47:15;98338.46;;;8.64;100.00
23341;BME280;12239;53.404;23.492;2022-10-03T05:50:32;98336.02;;;8.66;100.00
23341;BME280;12239;53.404;23.492;2022-10-03T05:53:19;98341.46;;;8.69;100.00
23341;BME280;12239;53.404;23.492;2022-10-03T05:55:59;98331.75;;;8.71;100.00
23341;BME280;12239;53.404;23.492;2022-10-03T05:58:35;98324.42;;;8.71;100.00
23341;BME280;12239;53.404;23.492;2022-10-03T06:01:13;98323.74;;;8.71;100.00
23341;BME280;12239;53.404;23.492;2022-10-03T06:03:57;98319.61;;;8.71;100.00
23341;BME280;12239;53.404;23.492;2022-10-03T06:06:31;98310.92;;;8.69;100.00
23341;BME280;12239;53.404;23.492;2022-10-03T06:14:46;98312.93;;;8.61;100.00
23341;BME280;12239;53.404;23.492;2022-10-03T06:17:27;98313.79;;;8.58;100.00
23341;BME280;12239;53.404;23.492;2022-10-03T06:20:02;98314.95;;;8.56;100.00
23341;BME280;12239;53.404;23.492;2022-10-03T06:34:03;98315.67;;;8.55;100.00
23341;BME280;12239;53.404;23.492;2022-10-03T06:42:20;98305.35;;;8.54;100.00
23341;BME280;12239;53.404;23.492;2022-10-03T06:45:15;98300.51;;;8.55;100.00
23341;BME280;12239;53.404;23.492;2022-10-03T06:47:57;98292.33;;;8.54;100.00
23341;BME280;12239;53.404;23.492;2022-10-03T06:50:38;98285.17;;;8.53;100.00
23341;BME280;12239;53.404;23.492;2022-10-03T06:53:45;98286.81;;;8.54;100.00
23341;BME280;12239;53.404;23.492;2022-10-03T06:56:49;98278.39;;;8.59;100.00
23341;BME280;12239;53.404;23.492;2022-10-03T06:59:35;98273.08;;;8.61;100.00
23341;BME280;12239;53.404;23.492;2022-10-03T07:11:20;98270.35;;;8.79;100.00
23341;BME280;12239;53.404;23.492;2022-10-03T07:17:29;98264.63;;;8.89;100.00
23341;BME280;12239;53.404;23.492;2022-10-03T07:20:28;98266.98;;;8.92;100.00
23341;BME280;12239;53.404;23.492;2022-10-03T07:23:33;98276.30;;;8.98;100.00
23341;BME280;12239;53.404;23.492;2022-10-03T07:32:14;98275.58;;;9.13;100.00
23341;BME280;12239;53.404;23.492;2022-10-03T07:37:38;98279.71;;;9.15;100.00
23341;BME280;12239;53.404;23.492;2022-10-03T07:40:55;98279.84;;;9.16;100.00
23341;BME280;12239;53.404;23.492;2022-10-03T07:43:42;98280.52;;;9.15;100.00
23341;BME280;12239;53.404;23.492;2022-10-03T07:46:45;98283.48;;;9.18;100.00
23341;BME280;12239;53.404;23.492;2022-10-03T07:49:50;98283.84;;;9.21;100.00
23341;BME280;12239;53.404;23.492;2022-10-03T07:52:58;98285.15;;;9.24;100.00
23341;BME280;12239;53.404;23.492;2022-10-03T07:55:41;98286.58;;;9.27;100.00
23341;BME280;12239;53.404;23.492;2022-10-03T08:01:05;98275.67;;;9.33;100.00
23341;BME280;12239;53.404;23.492;2022-10-03T08:06:26;98271.39;;;9.37;100.00
23341;BME280;12239;53.404;23.492;2022-10-03T08:09:09;98265.08;;;9.39;100.00
23341;BME280;12239;53.404;23.492;2022-10-03T08:14:28;98257.68;;;9.50;100.00
23341;BME280;12239;53.404;23.492;2022-10-03T08:17:18;98261.55;;;9.61;100.00
23341;BME280;12239;53.404;23.492;2022-10-03T08:20:10;98254.99;;;9.71;100.00
23341;BME280;12239;53.404;23.492;2022-10-03T08:22:48;98260.33;;;9.72;100.00
23341;BME280;12239;53.404;23.492;2022-10-03T08:25:34;98264.98;;;9.69;100.00
23341;BME280;12239;53.404;23.492;2022-10-03T08:31:11;98293.23;;;9.60;100.00
23341;BME280;12239;53.404;23.492;2022-10-03T08:33:51;98301.21;;;9.56;100.00
23341;BME280;12239;53.404;23.492;2022-10-03T08:36:32;98306.05;;;9.47;100.00
23341;BME280;12239;53.404;23.492;2022-10-03T08:39:12;98328.76;;;9.25;100.00
23341;BME280;12239;53.404;23.492;2022-10-03T08:42:07;98328.09;;;9.07;100.00
23341;BME280;12239;53.404;23.492;2022-10-03T08:45:03;98344.88;;;8.88;100.00
23341;BME280;12239;53.404;23.492;2022-10-03T08:50:57;98345.98;;;8.52;100.00
23341;BME280;12239;53.404;23.492;2022-10-03T08:56:19;98347.85;;;8.50;100.00
23341;BME280;12239;53.404;23.492;2022-10-03T08:59:15;98348.90;;;8.53;100.00
23341;BME280;12239;53.404;23.492;2022-10-03T09:02:08;98353.30;;;8.59;100.00
23341;BME280;12239;53.404;23.492;2022-10-03T09:11:02;98363.41;;;8.61;100.00
23341;BME280;12239;53.404;23.492;2022-10-03T09:13:47;98364.54;;;8.54;100.00
23341;BME280;12239;53.404;23.492;2022-10-03T09:16:33;98362.12;;;8.56;100.00
23341;BME280;12239;53.404;23.492;2022-10-03T09:21:58;98363.98;;;8.60;100.00
23341;BME280;12239;53.404;23.492;2022-10-03T09:27:28;98360.29;;;8.64;100.00
23341;BME280;12239;53.404;23.492;2022-10-03T09:30:13;98364.59;;;8.66;100.00
23341;BME280;12239;53.404;23.492;2022-10-03T09:33:09;98360.86;;;8.65;100.00
23341;BME280;12239;53.404;23.492;2022-10-03T09:35:50;98363.96;;;8.63;100.00
23341;BME280;12239;53.404;23.492;2022-10-03T09:38:52;98365.48;;;8.59;100.00
23341;BME280;12239;53.404;23.492;2022-10-03T09:44:14;98374.19;;;8.59;100.00
23341;BME280;12239;53.404;23.492;2022-10-03T09:46:56;98369.36;;;8.57;100.00
23341;BME280;12239;53.404;23.492;2022-10-03T09:53:08;98372.45;;;8.57;100.00
23341;BME280;12239;53.404;23.492;2022-10-03T09:55:47;98375.39;;;8.51;100.00
23341;BME280;12239;53.404;23.492;2022-10-03T09:58:36;98391.09;;;8.46;100.00
23341;BME280;12239;53.404;23.492;2022-10-03T10:01:16;98399.39;;;8.47;99.66
23341;BME280;12239;53.404;23.492;2022-10-03T10:06:49;98401.67;;;8.47;98.26
23341;BME280;12239;53.404;23.492;2022-10-03T10:09:49;98403.26;;;8.53;96.24
23341;BME280;12239;53.404;23.492;2022-10-03T10:12:37;98410.91;;;8.54;96.17
23341;BME280;12239;53.404;23.492;2022-10-03T10:15:15;98409.57;;;8.54;97.53
23341;BME280;12239;53.404;23.492;2022-10-03T10:17:58;98420.86;;;8.55;94.26
23341;BME280;12239;53.404;23.492;2022-10-03T10:20:38;98423.53;;;8.53;92.89
23341;BME280;12239;53.404;23.492;2022-10-03T10:23:19;98425.06;;;8.49;90.94
23341;BME280;12239;53.404;23.492;2022-10-03T10:26:22;98428.02;;;8.42;90.11
23341;BME280;12239;53.404;23.492;2022-10-03T10:29:15;98443.20;;;8.37;90.96
23341;BME280;12239;53.404;23.492;2022-10-03T10:37:29;98463.02;;;8.19;97.49
23341;BME280;12239;53.404;23.492;2022-10-03T10:57:03;98495.71;;;7.97;97.90
23341;BME280;12239;53.404;23.492;2022-10-03T11:05:40;98505.23;;;8.01;94.83
23341;BME280;12239;53.404;23.492;2022-10-03T11:08:43;98510.35;;;8.01;94.83
23341;BME280;12239;53.404;23.492;2022-10-03T11:11:30;98508.23;;;8.03;95.68
23341;BME280;12239;53.404;23.492;2022-10-03T11:14:15;98500.27;;;8.13;96.41
23341;BME280;12239;53.404;23.492;2022-10-03T11:17:06;98513.26;;;8.20;95.57
23341;BME280;12239;53.404;23.492;2022-10-03T11:19:48;98516.23;;;8.25;93.40
23341;BME280;12239;53.404;23.492;2022-10-03T11:22:40;98518.52;;;8.33;95.01
23341;BME280;12239;53.404;23.492;2022-10-03T11:28:35;98531.02;;;8.32;93.22
23341;BME280;12239;53.404;23.492;2022-10-03T11:31:22;98523.77;;;8.28;92.34
23341;BME280;12239;53.404;23.492;2022-10-03T11:39:45;98536.73;;;8.23;93.11
23341;BME280;12239;53.404;23.492;2022-10-03T11:42:40;98528.39;;;8.19;92.93
23341;BME280;12239;53.404;23.492;2022-10-03T11:45:19;98529.02;;;8.17;92.93
23341;BME280;12239;53.404;23.492;2022-10-03T11:47:54;98527.81;;;8.15;91.88
23341;BME280;12239;53.404;23.492;2022-10-03T11:50:28;98532.35;;;8.14;93.94
23341;BME280;12239;53.404;23.492;2022-10-03T11:53:03;98533.79;;;8.14;94.31
23341;BME280;12239;53.404;23.492;2022-10-03T11:55:36;98540.84;;;8.12;92.95
23341;BME280;12239;53.404;23.492;2022-10-03T11:58:16;98542.37;;;8.11;93.80
23341;BME280;12239;53.404;23.492;2022-10-03T12:00:53;98554.55;;;8.10;93.73
23341;BME280;12239;53.404;23.492;2022-10-03T12:03:29;98563.64;;;8.08;94.45
23341;BME280;12239;53.404;23.492;2022-10-03T12:06:01;98554.48;;;8.08;95.17
23341;BME280;12239;53.404;23.492;2022-10-03T12:08:55;98551.11;;;8.11;95.95
23341;BME280;12239;53.404;23.492;2022-10-03T12:11:31;98567.82;;;8.13;96.16
23341;BME280;12239;53.404;23.492;2022-10-03T12:14:04;98564.14;;;8.16;96.19
23341;BME280;12239;53.404;23.492;2022-10-03T12:16:41;98565.55;;;8.18;96.24
23341;BME280;12239;53.404;23.492;2022-10-03T12:19:17;98565.32;;;8.26;96.44
23341;BME280;12239;53.404;23.492;2022-10-03T12:21:52;98572.14;;;8.35;95.08
23341;BME280;12239;53.404;23.492;2022-10-03T12:24:44;98578.69;;;8.40;94.28
23341;BME280;12239;53.404;23.492;2022-10-03T12:27:16;98572.15;;;8.46;93.67
23341;BME280;12239;53.404;23.492;2022-10-03T12:29:53;98572.76;;;8.51;92.46
23341;BME280;12239;53.404;23.492;2022-10-03T12:32:29;98579.14;;;8.59;92.76
23341;BME280;12239;53.404;23.492;2022-10-03T12:35:03;98575.19;;;8.63;91.31
23341;BME280;12239;53.404;23.492;2022-10-03T12:37:39;98585.09;;;8.67;91.45
23341;BME280;12239;53.404;23.492;2022-10-03T12:40:13;98582.74;;;8.71;91.68
23341;BME280;12239;53.404;23.492;2022-10-03T12:42:46;98583.48;;;8.77;92.68
23341;BME280;12239;53.404;23.492;2022-10-03T12:45:20;98578.16;;;8.80;92.44
23341;BME280;12239;53.404;23.492;2022-10-03T12:47:55;98578.50;;;8.82;91.83
23341;BME280;12239;53.404;23.492;2022-10-03T12:50:50;98583.89;;;8.86;91.53
23341;BME280;12239;53.404;23.492;2022-10-03T12:56:18;98576.83;;;8.80;89.56
23341;BME280;12239;53.404;23.492;2022-10-03T12:59:00;98583.43;;;8.77;90.50
23341;BME280;12239;53.404;23.492;2022-10-03T13:01:45;98586.06;;;8.77;91.63
23341;BME280;12239;53.404;23.492;2022-10-03T13:04:22;98588.66;;;8.73;91.30
23341;BME280;12239;53.404;23.492;2022-10-03T13:06:58;98581.93;;;8.72;92.03
23341;BME280;12239;53.404;23.492;2022-10-03T13:10:00;98589.21;;;8.72;92.40
23341;BME280;12239;53.404;23.492;2022-10-03T13:12:42;98590.39;;;8.72;92.77
23341;BME280;12239;53.404;23.492;2022-10-03T13:15:40;98589.95;;;8.73;92.66
23341;BME280;12239;53.404;23.492;2022-10-03T13:18:30;98593.35;;;8.75;92.87
23341;BME280;12239;53.404;23.492;2022-10-03T13:21:04;98595.23;;;8.77;93.36
23341;BME280;12239;53.404;23.492;2022-10-03T13:23:39;98595.04;;;8.81;94.62
23341;BME280;12239;53.404;23.492;2022-10-03T13:26:15;98600.67;;;8.84;94.07
23341;BME280;12239;53.404;23.492;2022-10-03T13:29:13;98605.98;;;8.86;93.06
23341;BME280;12239;53.404;23.492;2022-10-03T13:31:53;98601.25;;;8.87;93.28
23341;BME280;12239;53.404;23.492;2022-10-03T13:34:24;98608.47;;;8.88;93.77
23341;BME280;12239;53.404;23.492;2022-10-03T13:36:58;98617.30;;;8.89;94.23
23341;BME280;12239;53.404;23.492;2022-10-03T13:39:36;98620.36;;;8.89;93.57
23341;BME280;12239;53.404;23.492;2022-10-03T13:42:10;98626.19;;;8.90;93.94
23341;BME280;12239;53.404;23.492;2022-10-03T13:44:43;98632.05;;;8.91;93.38
23341;BME280;12239;53.404;23.492;2022-10-03T13:47:32;98634.45;;;8.93;92.86
23341;BME280;12239;53.404;23.492;2022-10-03T13:50:24;98631.73;;;8.94;92.89
23341;BME280;12239;53.404;23.492;2022-10-03T13:53:33;98634.52;;;8.97;92.57
23341;BME280;12239;53.404;23.492;2022-10-03T13:56:09;98647.50;;;8.99;93.22
23341;BME280;12239;53.404;23.492;2022-10-03T13:58:41;98649.05;;;8.99;92.90
23341;BME280;12239;53.404;23.492;2022-10-03T14:01:19;98645.77;;;9.01;93.69
23341;BME280;12239;53.404;23.492;2022-10-03T14:04:02;98650.42;;;9.03;94.29
23341;BME280;12239;53.404;23.492;2022-10-03T14:06:36;98658.58;;;9.04;93.04
23341;BME280;12239;53.404;23.492;2022-10-03T14:09:12;98657.99;;;9.06;92.08
23341;BME280;12239;53.404;23.492;2022-10-03T14:11:50;98664.80;;;9.06;91.98
23341;BME280;12239;53.404;23.492;2022-10-03T14:14:39;98660.60;;;9.07;92.65
23341;BME280;12239;53.404;23.492;2022-10-03T14:17:12;98664.08;;;9.05;92.43
23341;BME280;12239;53.404;23.492;2022-10-03T14:19:49;98666.27;;;9.05;92.25
23341;BME280;12239;53.404;23.492;2022-10-03T14:22:24;98665.21;;;9.06;92.16
23341;BME280;12239;53.404;23.492;2022-10-03T14:24:58;98670.48;;;9.08;92.54
23341;BME280;12239;53.404;23.492;2022-10-03T14:27:41;98667.92;;;9.08;91.79
23341;BME280;12239;53.404;23.492;2022-10-03T14:30:12;98669.41;;;9.08;92.10
23341;BME280;12239;53.404;23.492;2022-10-03T14:33:00;98670.02;;;9.08;91.96
23341;BME280;12239;53.404;23.492;2022-10-03T14:35:34;98666.90;;;9.11;90.87
23341;BME280;12239;53.404;23.492;2022-10-03T14:38:14;98666.73;;;9.13;91.45
23341;BME280;12239;53.404;23.492;2022-10-03T14:40:55;98663.70;;;9.15;91.90
23341;BME280;12239;53.404;23.492;2022-10-03T14:43:35;98668.76;;;9.17;91.70
23341;BME280;12239;53.404;23.492;2022-10-03T14:46:07;98669.40;;;9.17;92.51
23341;BME280;12239;53.404;23.492;2022-10-03T14:48:47;98667.78;;;9.17;93.22
23341;BME280;12239;53.404;23.492;2022-10-03T14:51:30;98668.75;;;9.15;93.84
23341;BME280;12239;53.404;23.492;2022-10-03T14:54:04;98667.26;;;9.14;94.51
23341;BME280;12239;53.404;23.492;2022-10-03T14:56:42;98666.16;;;9.14;95.20
23341;BME280;12239;53.404;23.492;2022-10-03T14:59:12;98663.25;;;9.14;95.64
23341;BME280;12239;53.404;23.492;2022-10-03T15:01:50;98664.83;;;9.15;96.08
23341;BME280;12239;53.404;23.492;2022-10-03T15:04:24;98667.79;;;9.14;96.27
23341;BME280;12239;53.404;23.492;2022-10-03T15:06:55;98663.74;;;9.13;96.19
23341;BME280;12239;53.404;23.492;2022-10-03T15:09:31;98669.38;;;9.14;96.36
23341;BME280;12239;53.404;23.492;2022-10-03T15:12:03;98662.02;;;9.14;95.89
23341;BME280;12239;53.404;23.492;2022-10-03T15:14:37;98668.48;;;9.14;94.83
23341;BME280;12239;53.404;23.492;2022-10-03T15:17:15;98664.45;;;9.18;93.96
23341;BME280;12239;53.404;23.492;2022-10-03T15:19:46;98662.22;;;9.19;94.07
23341;BME280;12239;53.404;23.492;2022-10-03T15:22:24;98661.23;;;9.20;92.39
23341;BME280;12239;53.404;23.492;2022-10-03T15:24:57;98665.75;;;9.25;91.29
23341;BME280;12239;53.404;23.492;2022-10-03T15:27:27;98662.73;;;9.27;91.48
23341;BME280;12239;53.404;23.492;2022-10-03T15:29:58;98663.71;;;9.27;91.69
23341;BME280;12239;53.404;23.492;2022-10-03T15:32:30;98667.70;;;9.28;91.14
23341;BME280;12239;53.404;23.492;2022-10-03T15:35:02;98660.31;;;9.31;91.17
23341;BME280;12239;53.404;23.492;2022-10-03T15:37:33;98678.34;;;9.31;92.00
23341;BME280;12239;53.404;23.492;2022-10-03T15:40:06;98678.23;;;9.32;91.83
23341;BME280;12239;53.404;23.492;2022-10-03T15:42:46;98674.84;;;9.31;92.24
23341;BME280;12239;53.404;23.492;2022-10-03T15:45:18;98673.92;;;9.31;92.97
23341;BME280;12239;53.404;23.492;2022-10-03T15:47:49;98673.98;;;9.31;93.21
23341;BME280;12239;53.404;23.492;2022-10-03T15:50:20;98678.34;;;9.31;93.34
23341;BME280;12239;53.404;23.492;2022-10-03T15:52:51;98680.05;;;9.33;92.80
23341;BME280;12239;53.404;23.492;2022-10-03T15:55:22;98682.95;;;9.36;93.13
23341;BME280;12239;53.404;23.492;2022-10-03T15:58:04;98679.42;;;9.35;93.24
23341;BME280;12239;53.404;23.492;2022-10-03T16:00:39;98684.11;;;9.34;93.47
23341;BME280;12239;53.404;23.492;2022-10-03T16:03:30;98683.48;;;9.34;93.84
23341;BME280;12239;53.404;23.492;2022-10-03T16:06:06;98687.67;;;9.33;93.31
23341;BME280;12239;53.404;23.492;2022-10-03T16:08:39;98680.77;;;9.33;93.18
23341;BME280;12239;53.404;23.492;2022-10-03T16:11:15;98690.86;;;9.33;93.37
23341;BME280;12239;53.404;23.492;2022-10-03T16:13:50;98688.33;;;9.33;92.85
23341;BME280;12239;53.404;23.492;2022-10-03T16:16:21;98682.47;;;9.33;93.06
23341;BME280;12239;53.404;23.492;2022-10-03T16:18:54;98690.68;;;9.33;92.86
23341;BME280;12239;53.404;23.492;2022-10-03T16:21:31;98684.39;;;9.34;92.59
23341;BME280;12239;53.404;23.492;2022-10-03T16:24:01;98675.55;;;9.35;93.03
23341;BME280;12239;53.404;23.492;2022-10-03T16:26:34;98679.28;;;9.32;92.88
23341;BME280;12239;53.404;23.492;2022-10-03T16:29:10;98677.10;;;9.31;93.33
23341;BME280;12239;53.404;23.492;2022-10-03T16:31:41;98680.38;;;9.29;93.25
23341;BME280;12239;53.404;23.492;2022-10-03T16:34:14;98679.05;;;9.27;92.92
23341;BME280;12239;53.404;23.492;2022-10-03T16:36:45;98684.54;;;9.29;92.78
23341;BME280;12239;53.404;23.492;2022-10-03T16:39:17;98690.89;;;9.29;93.01